Lulu Pass Weather Station

This weather station is located at 10020ft near Lulu Pass at the head of Fisher Creek. This data can be used with temperature and precipitation data from the Fisher Creek SNOTEL site. This data can be viewed directly on datagarrison.com

Elevation
10020ft
Jump to table bottom
Date Time Temperature
deg F
RH, % Wind Speed Wind Gust Wind Direction
12/01/22 15:00 17.4 92 17 43 S - 201
12/01/22 14:00 17.4 92 22 44 S - 191
12/01/22 13:00 17.8 92 23 51 S - 181
12/01/22 12:00 17.2 92 23 50 S - 184
12/01/22 11:00 17.1 91 25 54 S - 184
12/01/22 10:00 16.7 91 24 50 S - 185
12/01/22 09:00 16.3 91 24 45 S - 184
12/01/22 08:00 16.0 91 26 52 S - 183
12/01/22 07:00 15.7 91 28 51 S - 177
12/01/22 06:00 15.6 91 26 47 S - 185
12/01/22 05:00 15.1 91 22 43 S - 187
12/01/22 04:00 14.5 91 23 51 S - 188
12/01/22 03:00 14.3 91 21 42 S - 187
12/01/22 02:00 13.6 91 23 48 S - 184
12/01/22 01:00 13.3 91 20 46 S - 178
12/01/22 00:00 13.0 91 19 40 S - 181
11/30/22 23:00 12.9 91 20 38 S - 184
11/30/22 22:00 12.9 91 16 36 S - 185
11/30/22 21:00 12.8 90 17 38 S - 194
11/30/22 20:00 13.1 91 24 44 S - 190
11/30/22 19:00 13.0 91 24 43 S - 188
11/30/22 18:00 13.3 91 18 38 S - 187
11/30/22 17:00 13.1 90 16 34 S - 188
11/30/22 16:00 12.5 90 18 42 S - 187
11/30/22 15:00 11.4 90 18 33 S - 188
11/30/22 14:00 10.4 89 23 42 S - 187
11/30/22 13:00 9.4 89 21 43 S - 187
11/30/22 12:00 7.6 88 17 30 S - 192
11/30/22 11:00 6.7 88 21 34 S - 194
11/30/22 10:00 5.5 87 13 32 S - 198
11/30/22 09:00 4.4 87 9 26 SW - 213
11/30/22 08:00 3.0 87 7 20 SW - 226
11/30/22 07:00 1.4 87 5 16 W - 278
11/30/22 06:00 0.9 86 7 20 SW - 208
11/30/22 05:00 0.2 86 5 18 SW - 244
11/30/22 04:00 -0.1 86 8 29 SW - 226
11/30/22 03:00 -0.8 86 9 24 SW - 218
11/30/22 02:00 -1.2 86 9 26 SW - 211
11/30/22 01:00 -1.8 85 10 27 SW - 209
11/30/22 00:00 -2.5 85 13 34 S - 199
11/29/22 23:00 -2.4 85 9 25 SW - 229
11/29/22 22:00 -2.6 85 10 24 SW - 233
11/29/22 21:00 -3.2 85 9 20 SW - 234
11/29/22 20:00 -4.3 85 13 24 SW - 216
11/29/22 19:00 -4.5 85 12 27 SW - 226
11/29/22 18:00 -4.2 85 11 25 SW - 225
11/29/22 17:00 -3.9 85 12 33 W - 254
11/29/22 16:00 -4.2 85 14 28 W - 263
11/29/22 15:00 -4.0 85 14 27 W - 261
11/29/22 14:00 -3.7 85 12 26 W - 258